Time;durP1;ratioP1;P1;durP2;ratioP2;P2;SDS_P1;SDS_P2;PMS_P1;PMS_P2;Temp;Humidity;BMP_temperature;BMP_pressure;BME280_temperature;BME280_humidity;BME280_pressure;Samples;Min_cycle;Max_cycle;Signal;HPM_P1;HPM_P2
2021/11/13 06:58:17;;;;;;;109.13;60.85;;;179.30;2252.80;;;;;;5855405;24;20025;31
2021/11/13 09:17:43;;;;;;;97.55;59.50;;;205.50;2252.80;;;;;;5390853;24;20051;-91
2021/11/13 09:20:44;;;;;;;107.13;62.17;;;205.30;2252.80;;;;;;4788043;29;20060;-90
2021/11/13 10:08:55;;;;;;;125.45;73.60;;;205.50;2252.80;;;;;;5104423;24;20416;-90
2021/11/13 10:11:24;;;;;;;113.95;68.72;;;205.60;2252.80;;;;;;4776482;30;20031;-93
2021/11/13 10:47:46;;;;;;;226.77;128.32;;;205.60;2252.80;;;;;;4899416;24;20055;-90
2021/11/13 11:01:52;;;;;;;125.70;68.78;;;205.70;2252.80;;;;;;5007536;24;20054;-89
2021/11/13 11:07:26;;;;;;;127.28;70.40;;;230.40;2252.80;;;;;;4806754;24;20456;-91
2021/11/13 11:12:46;;;;;;;118.07;65.07;;;230.60;2252.80;;;;;;4825941;24;20087;-90
2021/11/13 11:15:14;;;;;;;127.63;71.00;;;230.50;2252.80;;;;;;4775243;30;20118;-90
2021/11/13 11:17:45;;;;;;;137.23;75.20;;;230.70;2252.80;;;;;;4774895;30;20043;-90
2021/11/13 11:20:14;;;;;;;167.40;88.50;;;230.70;2252.80;;;;;;4775034;30;20039;-90
2021/11/13 11:22:41;;;;;;;135.52;73.60;;;230.90;2252.80;;;;;;4775427;30;20035;-91
2021/11/13 11:25:11;;;;;;;131.57;72.25;;;231.00;2252.80;;;;;;4775040;30;20058;-89
2021/11/13 11:27:43;;;;;;;127.63;70.88;;;231.00;2252.80;;;;;;4775000;30;20063;-91
2021/11/13 11:30:21;;;;;;;140.45;72.72;;;231.10;2252.80;;;;;;4775180;30;20070;-89
2021/11/13 11:32:52;;;;;;;136.20;76.03;;;231.10;2252.80;;;;;;4757268;30;20105;-91
2021/11/13 11:35:22;;;;;;;132.32;72.18;;;231.20;2252.80;;;;;;4769606;30;20027;-91
2021/11/13 11:37:48;;;;;;;126.55;71.18;;;231.20;2252.80;;;;;;4774828;30;20035;-90
2021/11/13 11:40:24;;;;;;;132.77;75.35;;;256.10;2252.80;;;;;;4796323;29;20035;-92
2021/11/13 11:42:51;;;;;;;134.07;76.18;;;256.50;2252.80;;;;;;4774982;30;20129;-90
2021/11/13 11:45:20;;;;;;;132.68;75.95;;;281.60;2278.40;;;;;;4775006;30;20081;-92
2021/11/13 11:47:49;;;;;;;121.72;68.40;;;281.90;2252.80;;;;;;4774803;30;20549;-92
2021/11/13 11:50:23;;;;;;;113.40;63.55;;;281.70;2252.80;;;;;;4774789;30;20027;-93
2021/11/13 11:52:52;;;;;;;111.30;63.72;;;281.70;2252.80;;;;;;4775001;30;20024;-92
2021/11/13 11:55:20;;;;;;;117.18;65.15;;;281.90;2252.80;;;;;;4794620;29;20494;-90
2021/11/13 11:57:54;;;;;;;116.05;66.15;;;282.30;2201.60;;;;;;4774567;30;20114;-87
2021/11/13 12:00:23;;;;;;;118.22;66.47;;;282.50;2201.60;;;;;;4774375;30;20027;-86
2021/11/13 12:02:57;;;;;;;118.00;64.97;;;282.40;2201.60;;;;;;4774435;30;20035;-86
2021/11/13 12:05:27;;;;;;;;;;;282.30;2227.20;;;;;;4774707;30;20031;-86
2021/11/13 12:07:54;;;;;;;121.40;69.70;;;282.20;2227.20;;;;;;4774224;30;19909;-87
2021/11/13 12:10:20;;;;;;;130.57;70.13;;;282.20;2252.80;;;;;;4774288;30;20049;-86
2021/11/13 12:13:07;;;;;;;136.65;78.50;;;282.10;2227.20;;;;;;4790076;30;20055;-87
2021/11/13 12:15:54;;;;;;;125.38;69.72;;;282.10;2252.80;;;;;;4774255;30;20030;-88
2021/11/13 12:18:23;;;;;;;121.20;65.00;;;282.10;2252.80;;;;;;4772019;30;20046;-86
2021/11/13 12:21:08;;;;;;;116.00;65.47;;;282.00;2278.40;;;;;;4774030;30;20035;-88
2021/11/13 12:23:42;;;;;;;127.43;74.22;;;281.90;2278.40;;;;;;4774290;30;20071;-91
2021/11/13 12:26:12;;;;;;;127.82;73.20;;;281.80;2278.40;;;;;;4774174;30;20388;-90
2021/11/13 12:28:47;;;;;;;129.43;71.38;;;281.80;2278.40;;;;;;4774237;30;20027;-92
2021/11/13 12:31:42;;;;;;;136.35;74.47;;;282.10;2278.40;;;;;;4789215;30;20091;-92
2021/11/13 12:34:16;;;;;;;131.13;72.57;;;282.10;2227.20;;;;;;4774258;30;20034;-92
2021/11/13 12:36:50;;;;;;;127.30;73.28;;;282.10;2252.80;;;;;;4774028;30;20035;-92
2021/11/13 12:39:20;;;;;;;145.85;79.68;;;281.90;2252.80;;;;;;4788711;30;20031;-91
2021/11/13 12:41:51;;;;;;;125.00;68.72;;;281.90;2278.40;;;;;;4773645;30;20035;-91
2021/11/13 12:44:29;;;;;;;133.02;74.05;;;282.10;2278.40;;;;;;4773360;30;20486;-90
2021/11/13 12:47:08;;;;;;;150.80;81.25;;;282.40;2227.20;;;;;;4773485;30;20084;-89
2021/11/13 12:49:42;;;;;;;118.30;66.97;;;282.30;2227.20;;;;;;4773579;30;20035;-89
2021/11/13 12:52:21;;;;;;;125.75;70.70;;;282.10;2252.80;;;;;;4789619;30;20359;-91
2021/11/13 12:54:58;;;;;;;154.25;83.97;;;281.90;2278.40;;;;;;4773311;30;20047;-89
2021/11/13 12:57:35;;;;;;;133.30;77.50;;;281.80;2278.40;;;;;;4789354;30;20114;-91
2021/11/13 13:00:09;;;;;;;125.25;71.38;;;281.70;2278.40;;;;;;4787491;30;20031;-91
2021/11/13 13:02:36;;;;;;;132.27;74.95;;;281.60;2278.40;;;;;;4786919;30;20032;-91
2021/11/13 13:05:04;;;;;;;129.50;66.15;;;281.60;2278.40;;;;;;4773205;30;20039;-93
2021/11/13 13:07:30;;;;;;;124.30;71.68;;;281.60;2278.40;;;;;;4773374;30;20034;-91
2021/11/13 13:10:18;;;;;;;117.22;68.10;;;256.90;2252.80;;;;;;4773629;30;20118;-91
2021/11/13 13:12:44;;;;;;;116.15;65.53;;;256.90;2252.80;;;;;;4773557;30;20067;-91
2021/11/13 13:15:19;;;;;;;128.95;74.93;;;256.90;2252.80;;;;;;4773650;30;20027;-92
2021/11/13 13:17:52;;;;;;;115.75;65.18;;;281.60;2278.40;;;;;;4773329;30;20039;-90
2021/11/13 13:20:23;;;;;;;;;;;281.60;2278.40;;;;;;4773880;30;20117;-91
2021/11/13 13:22:49;;;;;;;120.50;68.32;;;281.60;2278.40;;;;;;4773321;30;20444;-90
2021/11/13 13:25:16;;;;;;;121.38;66.95;;;256.90;2252.80;;;;;;4773337;30;20031;-91
2021/11/13 13:27:42;;;;;;;109.57;61.08;;;256.90;2252.80;;;;;;4789318;30;20031;-91
2021/11/13 13:30:13;;;;;;;111.95;63.60;;;281.60;2278.40;;;;;;4772852;30;20039;-90
2021/11/13 13:32:44;;;;;;;122.88;64.32;;;281.60;2278.40;;;;;;4773343;30;20034;-91
2021/11/13 13:35:14;;;;;;;114.95;61.42;;;281.60;2278.40;;;;;;4773291;30;20080;-90
2021/11/13 13:37:52;;;;;;;130.68;69.93;;;256.90;2252.80;;;;;;4773204;30;20665;-90
2021/11/13 13:40:22;;;;;;;115.68;63.35;;;281.60;2278.40;;;;;;4788167;30;20641;-91
2021/11/13 13:42:49;;;;;;;116.22;63.13;;;256.90;2252.80;;;;;;4774264;30;20031;-91
2021/11/13 13:45:16;;;;;;;121.15;68.90;;;256.90;2252.80;;;;;;4772980;30;20485;-90
2021/11/13 13:47:46;;;;;;;131.05;74.80;;;256.90;2252.80;;;;;;4773165;30;20042;-90
2021/11/13 13:50:12;;;;;;;119.93;63.97;;;256.80;2252.80;;;;;;4773129;30;20031;-92
2021/11/13 13:52:42;;;;;;;118.50;65.95;;;256.80;2252.80;;;;;;4773472;30;20043;-91
2021/11/13 13:55:16;;;;;;;136.48;81.32;;;256.80;2252.80;;;;;;4773385;30;20398;-89
2021/11/13 13:58:00;;;;;;;124.45;67.32;;;256.80;2252.80;;;;;;4773690;30;20102;-91
2021/11/13 14:00:27;;;;;;;119.30;66.28;;;256.70;2252.80;;;;;;4773432;30;20031;-93
2021/11/13 14:02:53;;;;;;;122.25;65.40;;;256.60;2252.80;;;;;;4758705;30;20036;-90
2021/11/13 14:05:22;;;;;;;134.00;72.20;;;256.50;2252.80;;;;;;4773083;30;20505;-91
2021/11/13 14:07:49;;;;;;;131.82;68.53;;;256.50;2252.80;;;;;;4773155;30;20090;-91
2021/11/13 14:10:16;;;;;;;123.93;70.63;;;256.40;2252.80;;;;;;4773382;30;20451;-91
2021/11/13 14:12:47;;;;;;;132.68;72.45;;;256.50;2252.80;;;;;;4772726;30;20405;-90
2021/11/13 14:15:29;;;;;;;135.10;74.82;;;256.50;2252.80;;;;;;4787756;30;20378;-90
2021/11/13 14:18:07;;;;;;;125.57;70.30;;;256.40;2252.80;;;;;;4772854;30;20036;-92
2021/11/13 14:20:35;;;;;;;144.15;77.07;;;256.50;2252.80;;;;;;4772928;30;20066;-90
2021/11/13 14:23:04;;;;;;;129.95;75.03;;;256.50;2252.80;;;;;;4772835;30;20376;-91
2021/11/13 14:25:40;;;;;;;137.35;78.05;;;256.50;2252.80;;;;;;4772887;30;20126;-89
2021/11/13 14:28:06;;;;;;;132.85;78.80;;;256.40;2252.80;;;;;;4772962;30;20089;-89
2021/11/13 14:30:41;;;;;;;131.32;73.35;;;256.50;2252.80;;;;;;4772782;30;20027;-88
2021/11/13 14:33:08;;;;;;;145.00;80.47;;;256.50;2252.80;;;;;;4772727;30;20410;-91
2021/11/13 14:35:35;;;;;;;138.88;78.22;;;256.60;2252.80;;;;;;4772728;30;20032;-92
2021/11/13 14:38:01;;;;;;;158.82;93.53;;;256.60;2252.80;;;;;;4772746;30;20075;-92
2021/11/13 14:40:27;;;;;;;157.73;89.72;;;256.60;2252.80;;;;;;4772899;30;20031;-90
2021/11/13 14:42:53;;;;;;;152.60;90.75;;;256.60;2252.80;;;;;;4775708;30;20031;-89
2021/11/13 14:45:27;;;;;;;144.40;80.57;;;256.60;2252.80;;;;;;4775757;30;20035;-88
2021/11/13 14:47:54;;;;;;;144.25;80.05;;;256.60;2252.80;;;;;;4776087;30;20038;-90
2021/11/13 14:50:20;;;;;;;134.75;77.47;;;256.60;2252.80;;;;;;4775809;30;20035;-92
2021/11/13 14:52:50;;;;;;;138.77;78.20;;;256.60;2252.80;;;;;;4775909;30;20065;-88
2021/11/13 14:55:22;;;;;;;156.38;85.80;;;256.60;2252.80;;;;;;4775631;30;20023;-91
2021/11/13 14:57:54;;;;;;;140.07;82.35;;;256.60;2252.80;;;;;;4775666;30;20035;-90
2021/11/13 15:00:43;;;;;;;132.37;76.47;;;256.60;2252.80;;;;;;4775680;30;20027;-90
2021/11/13 15:03:11;;;;;;;123.75;72.32;;;256.50;2252.80;;;;;;4775379;30;20027;-90
2021/11/13 15:05:44;;;;;;;124.78;73.45;;;256.60;2252.80;;;;;;4790470;30;20396;-94
2021/11/13 15:08:28;;;;;;;132.88;76.35;;;256.60;2252.80;;;;;;4790565;30;20084;-90
2021/11/13 15:11:02;;;;;;;137.05;78.55;;;256.60;2252.80;;;;;;4775525;30;20048;-92
2021/11/13 15:13:31;;;;;;;149.02;88.72;;;256.60;2252.80;;;;;;4790309;30;20031;-90
2021/11/13 15:16:18;;;;;;;151.57;85.95;;;256.60;2252.80;;;;;;4775248;30;20046;-92
2021/11/13 15:18:47;;;;;;;123.47;69.45;;;256.60;2252.80;;;;;;4775771;30;20043;-90
2021/11/13 15:21:15;;;;;;;124.72;68.20;;;256.60;2252.80;;;;;;4775405;30;20027;-91
2021/11/13 15:23:41;;;;;;;126.55;73.45;;;256.60;2252.80;;;;;;4775583;30;20043;-91
2021/11/13 15:26:18;;;;;;;114.97;67.03;;;256.50;2252.80;;;;;;4775126;30;20035;-90
2021/11/13 15:28:44;;;;;;;113.05;65.07;;;256.50;2252.80;;;;;;4775093;30;20066;-90
2021/11/13 15:31:14;;;;;;;112.07;63.83;;;256.60;2252.80;;;;;;4775108;30;20444;-90
2021/11/13 15:33:42;;;;;;;111.05;64.03;;;256.50;2252.80;;;;;;4775200;30;20552;-91
2021/11/13 15:36:15;;;;;;;125.28;72.53;;;256.50;2252.80;;;;;;4775013;30;20035;-91
2021/11/13 15:38:43;;;;;;;124.13;71.00;;;256.50;2252.80;;;;;;4774951;30;20047;-92
2021/11/13 15:41:21;;;;;;;121.72;71.47;;;256.40;2252.80;;;;;;4775024;30;20073;-91
2021/11/13 15:43:56;;;;;;;109.15;66.55;;;256.50;2252.80;;;;;;4774883;30;20031;-91
2021/11/13 15:46:24;;;;;;;118.38;71.00;;;256.50;2252.80;;;;;;4774930;30;20027;-89
2021/11/13 15:48:54;;;;;;;130.15;80.45;;;256.50;2252.80;;;;;;4774930;30;20096;-89
2021/11/13 15:51:22;;;;;;;130.68;77.53;;;256.50;2252.80;;;;;;4774772;29;20501;-90
2021/11/13 15:53:57;;;;;;;139.85;79.97;;;256.40;2252.80;;;;;;4774438;30;20031;-89
2021/11/13 15:56:29;;;;;;;135.32;74.75;;;256.30;2252.80;;;;;;4774693;30;20072;-90
2021/11/13 15:58:58;;;;;;;126.03;71.95;;;256.20;2252.80;;;;;;4774617;30;20061;-91
2021/11/13 16:01:30;;;;;;;125.63;71.97;;;256.10;2252.80;;;;;;4774853;30;20027;-90
2021/11/13 16:04:01;;;;;;;128.82;74.13;;;256.10;2252.80;;;;;;4774577;30;20059;-90
2021/11/13 16:06:28;;;;;;;135.18;78.38;;;256.00;2252.80;;;;;;4774661;30;20027;-90
2021/11/13 16:08:54;;;;;;;147.60;82.95;;;256.00;2252.80;;;;;;4774551;30;20039;-90
2021/11/13 16:11:20;;;;;;;148.38;82.63;;;256.00;2252.80;;;;;;4774079;30;20058;-91
2021/11/13 16:13:46;;;;;;;147.10;84.47;;;231.30;2252.80;;;;;;4774362;30;20028;-90
2021/11/13 16:16:12;;;;;;;138.15;79.72;;;231.30;2252.80;;;;;;4774275;30;20054;-89
2021/11/13 16:18:38;;;;;;;153.65;83.43;;;231.30;2252.80;;;;;;4774417;30;20036;-89
2021/11/13 16:21:05;;;;;;;153.25;83.57;;;231.30;2252.80;;;;;;4774198;30;20046;-91
2021/11/13 16:23:31;;;;;;;151.98;82.93;;;231.20;2252.80;;;;;;4774160;30;20119;-91
2021/11/13 16:25:58;;;;;;;148.40;80.97;;;231.20;2252.80;;;;;;4774221;30;20428;-93
2021/11/13 16:28:28;;;;;;;150.23;83.57;;;231.20;2252.80;;;;;;4774073;30;20039;-91
2021/11/13 16:30:54;;;;;;;158.95;85.22;;;231.20;2252.80;;;;;;4774642;30;20116;-90
2021/11/13 16:33:21;;;;;;;147.15;80.15;;;231.20;2252.80;;;;;;4774090;30;20122;-91
2021/11/13 16:35:49;;;;;;;129.05;75.53;;;231.20;2252.80;;;;;;4773942;30;20034;-91
2021/11/13 16:38:34;;;;;;;133.88;75.68;;;231.10;2252.80;;;;;;4774029;30;20047;-89
2021/11/13 16:41:06;;;;;;;125.15;73.32;;;231.10;2252.80;;;;;;4773778;30;20062;-91
2021/11/13 16:43:35;;;;;;;125.78;74.85;;;231.10;2252.80;;;;;;4773983;30;20088;-89
2021/11/13 16:46:04;;;;;;;128.18;78.15;;;231.10;2252.80;;;;;;4774065;30;20585;-90
2021/11/13 16:48:32;;;;;;;121.72;75.45;;;231.10;2252.80;;;;;;4774079;30;20577;-90
2021/11/13 16:51:01;;;;;;;125.15;72.03;;;231.00;2252.80;;;;;;4773869;30;20490;-91
2021/11/13 16:53:29;;;;;;;127.18;73.45;;;231.00;2252.80;;;;;;4773602;30;20035;-89
2021/11/13 16:56:03;;;;;;;123.00;70.03;;;231.00;2252.80;;;;;;4773690;30;20118;-91
2021/11/13 16:58:31;;;;;;;121.65;73.07;;;231.00;2252.80;;;;;;4759089;30;20055;-89
2021/11/13 17:00:57;;;;;;;123.20;74.68;;;231.00;2252.80;;;;;;4773738;30;20081;-91
2021/11/13 17:03:25;;;;;;;132.20;76.93;;;231.00;2252.80;;;;;;4773206;30;20389;-91
2021/11/13 17:05:52;;;;;;;133.80;77.55;;;231.00;2252.80;;;;;;4773349;30;20030;-90
2021/11/13 17:08:18;;;;;;;125.72;73.93;;;231.00;2252.80;;;;;;4773679;30;20038;-93
2021/11/13 17:10:44;;;;;;;126.43;77.40;;;231.00;2252.80;;;;;;4773273;30;20036;-92
2021/11/13 17:13:10;;;;;;;122.28;75.65;;;231.00;2252.80;;;;;;4773480;30;20058;-91
2021/11/13 17:15:36;;;;;;;116.05;72.07;;;231.00;2252.80;;;;;;4773515;30;20118;-90
2021/11/13 17:18:03;;;;;;;120.80;70.70;;;230.90;2252.80;;;;;;4773509;30;20046;-92
2021/11/13 17:20:33;;;;;;;131.98;77.68;;;230.80;2252.80;;;;;;4773535;30;20031;-91
2021/11/13 17:23:00;;;;;;;139.40;81.10;;;230.90;2252.80;;;;;;4773464;30;20074;-91
2021/11/13 17:25:25;;;;;;;158.38;92.00;;;230.90;2252.80;;;;;;4773295;30;20465;-91
2021/11/13 17:27:53;;;;;;;196.88;110.65;;;230.90;2252.80;;;;;;4773590;30;20058;-90
2021/11/13 17:30:24;;;;;;;192.82;104.40;;;230.90;2252.80;;;;;;4773259;30;20057;-91
2021/11/13 17:32:55;;;;;;;148.80;86.78;;;230.90;2252.80;;;;;;4773538;30;20379;-91
2021/11/13 17:35:22;;;;;;;136.55;80.25;;;230.80;2252.80;;;;;;4773449;30;20035;-92
2021/11/13 17:37:49;;;;;;;141.43;84.13;;;230.80;2252.80;;;;;;4773128;30;20043;-93
2021/11/13 17:40:19;;;;;;;130.82;81.78;;;230.90;2252.80;;;;;;4789152;30;20024;-91
2021/11/13 17:42:46;;;;;;;122.70;75.57;;;230.80;2252.80;;;;;;4787986;30;20046;-92
2021/11/13 17:45:15;;;;;;;118.38;72.78;;;230.80;2252.80;;;;;;4773018;30;20070;-92
2021/11/13 17:47:41;;;;;;;204.52;111.68;;;230.80;2252.80;;;;;;4773146;30;20088;-90
2021/11/13 17:50:09;;;;;;;245.20;129.18;;;230.80;2252.80;;;;;;4772994;30;20039;-90
2021/11/13 17:52:37;;;;;;;132.30;81.53;;;230.80;2252.80;;;;;;4772971;30;20035;-90
2021/11/13 17:55:06;;;;;;;274.88;147.15;;;230.70;2252.80;;;;;;4772943;30;20038;-91
2021/11/13 17:57:32;;;;;;;176.07;101.32;;;230.70;2252.80;;;;;;4772856;30;20040;-91
2021/11/13 18:00:00;;;;;;;196.30;109.43;;;230.60;2252.80;;;;;;4772989;30;20068;-91
2021/11/13 18:02:28;;;;;;;158.70;94.28;;;230.60;2252.80;;;;;;4772900;30;20070;-90
2021/11/13 18:04:56;;;;;;;153.63;92.90;;;230.50;2252.80;;;;;;4772923;30;20035;-92
2021/11/13 18:07:23;;;;;;;154.60;93.65;;;230.50;2252.80;;;;;;4772972;30;20036;-92
2021/11/13 18:09:50;;;;;;;173.50;102.32;;;230.50;2252.80;;;;;;4772971;30;20103;-91
2021/11/13 18:12:16;;;;;;;335.65;163.35;;;230.50;2252.80;;;;;;4772899;30;20059;-93
2021/11/13 18:14:43;;;;;;;156.48;91.63;;;230.40;2252.80;;;;;;4773173;29;20070;-92
2021/11/13 18:17:09;;;;;;;146.45;88.10;;;230.40;2252.80;;;;;;4776294;30;20069;-91
2021/11/13 18:19:35;;;;;;;147.80;92.35;;;230.40;2252.80;;;;;;4776172;30;20542;-92
2021/11/13 18:22:01;;;;;;;132.07;81.25;;;230.40;2252.80;;;;;;4776227;30;20089;-92
2021/11/13 18:24:27;;;;;;;136.77;85.18;;;230.40;2252.80;;;;;;4776265;30;20035;-90
2021/11/13 18:26:54;;;;;;;134.30;81.72;;;230.40;2252.80;;;;;;4776090;30;20036;-91
2021/11/13 18:29:21;;;;;;;127.82;78.60;;;230.40;2252.80;;;;;;4776132;30;20031;-90
2021/11/13 18:31:47;;;;;;;122.05;78.93;;;205.70;2252.80;;;;;;4775972;30;20058;-90
2021/11/13 18:34:19;;;;;;;125.40;79.22;;;205.70;2252.80;;;;;;4775957;30;20036;-91
2021/11/13 18:36:52;;;;;;;121.05;76.65;;;205.70;2252.80;;;;;;4775971;30;20126;-90
2021/11/13 18:39:19;;;;;;;123.57;76.10;;;205.60;2252.80;;;;;;4775970;30;20067;-92
2021/11/13 18:41:45;;;;;;;125.68;74.07;;;205.60;2252.80;;;;;;4775657;30;20340;-91
2021/11/13 18:44:11;;;;;;;115.47;72.63;;;205.60;2252.80;;;;;;4791762;30;20032;-90
2021/11/13 18:46:38;;;;;;;122.13;74.88;;;205.60;2252.80;;;;;;4775798;30;20031;-90
2021/11/13 18:49:05;;;;;;;132.88;85.85;;;205.60;2252.80;;;;;;4775679;30;20504;-92
2021/11/13 18:51:32;;;;;;;143.38;91.28;;;205.60;2252.80;;;;;;4775693;30;20043;-91
2021/11/13 18:53:59;;;;;;;120.28;74.70;;;205.60;2252.80;;;;;;4775729;30;20478;-90
2021/11/13 18:56:25;;;;;;;133.85;80.60;;;205.50;2252.80;;;;;;4775585;30;20050;-91
2021/11/13 18:58:51;;;;;;;156.75;89.65;;;205.50;2252.80;;;;;;4775785;30;20477;-91
2021/11/13 19:01:18;;;;;;;154.30;86.40;;;205.50;2252.80;;;;;;4775807;30;20508;-91
2021/11/13 19:03:45;;;;;;;236.13;121.57;;;205.50;2252.80;;;;;;4775493;30;20035;-89
2021/11/13 19:06:13;;;;;;;166.25;90.20;;;205.40;2252.80;;;;;;4775528;30;20035;-93
2021/11/13 19:08:40;;;;;;;144.45;83.55;;;205.40;2252.80;;;;;;4775516;30;20031;-89
2021/11/13 19:11:06;;;;;;;125.95;76.57;;;205.30;2252.80;;;;;;4775253;30;20130;-92
2021/11/13 19:13:33;;;;;;;210.77;115.78;;;205.30;2252.80;;;;;;4775297;30;20572;-91
2021/11/13 19:15:59;;;;;;;189.48;107.63;;;205.30;2252.80;;;;;;4775394;30;20061;-90
2021/11/13 19:18:25;;;;;;;301.10;136.77;;;205.30;2252.80;;;;;;4775072;30;20039;-89
2021/11/13 19:20:51;;;;;;;304.48;144.27;;;205.30;2252.80;;;;;;4775362;30;20028;-90
2021/11/13 19:23:17;;;;;;;204.13;110.70;;;205.30;2252.80;;;;;;4775091;30;20397;-91
2021/11/13 19:25:44;;;;;;;281.48;142.57;;;205.20;2252.80;;;;;;4775090;30;20066;-90
